Time;durP1;ratioP1;P1;durP2;ratioP2;P2;SDS_P1;SDS_P2;PMS_P1;PMS_P2;Temp;Humidity;BMP_temperature;BMP_pressure;BME280_temperature;BME280_humidity;BME280_pressure;Samples;Min_cycle;Max_cycle;Signal;HPM_P1;HPM_P2
2022/01/18 00:02:10;;;;;;;7.68;3.35;;;;;;;12.31;41.99;101693.91;4910716;29;20086;-78
2022/01/18 00:04:37;;;;;;;8.20;4.30;;;;;;;12.40;42.41;101722.28;4913558;29;20415;-77
2022/01/18 00:07:04;;;;;;;7.17;4.13;;;;;;;12.27;42.61;101701.13;4906399;29;20052;-78
2022/01/18 00:09:31;;;;;;;3.47;2.20;;;;;;;12.27;42.70;101703.94;4932748;28;20080;-77
2022/01/18 00:12:13;;;;;;;7.13;3.20;;;;;;;12.22;42.87;101712.31;4904879;29;20057;-81
2022/01/18 00:14:43;;;;;;;5.57;2.40;;;;;;;12.07;43.13;101704.59;4914409;29;20467;-75
2022/01/18 00:17:19;;;;;;;;;;;;;;;11.97;43.47;101705.31;4911883;29;20107;-77
2022/01/18 00:19:56;;;;;;;3.67;2.57;;;;;;;12.01;43.45;101705.63;4913394;29;19923;-73
2022/01/18 00:22:27;;;;;;;4.97;3.37;;;;;;;12.01;43.55;101698.06;4923631;29;20126;-72
2022/01/18 00:24:54;;;;;;;4.00;2.97;;;;;;;11.94;43.56;101694.63;4907147;29;20076;-72
2022/01/18 00:27:26;;;;;;;2.40;2.20;;;;;;;11.92;43.96;101691.22;4910843;29;20085;-70
2022/01/18 00:34:53;;;;;;;8.52;3.13;;;;;;;11.92;43.94;101688.44;4909043;29;20135;-69
2022/01/18 00:37:26;;;;;;;;;;;;;;;11.79;44.10;101686.00;4908426;29;20048;-70
2022/01/18 00:39:54;;;;;;;6.07;3.30;;;;;;;11.52;44.18;101619.66;4909894;29;19938;-69
2022/01/18 00:42:21;;;;;;;2.73;1.73;;;;;;;11.88;44.03;101678.88;4909525;29;20176;-70
2022/01/18 00:44:48;;;;;;;5.43;2.20;;;;;;;11.92;43.83;101680.03;4902662;29;20559;-70
2022/01/18 00:47:16;;;;;;;8.50;3.77;;;;;;;11.78;43.76;101639.53;4910972;29;20555;-70
2022/01/18 00:49:45;;;;;;;2.17;1.73;;;;;;;11.99;43.48;101677.03;4912746;29;20131;-70
2022/01/18 00:52:17;;;;;;;6.07;3.22;;;;;;;12.07;43.25;101671.81;4909158;29;20060;-75
2022/01/18 00:54:46;;;;;;;6.97;3.67;;;;;;;12.06;43.19;101677.66;4909462;29;20076;-75
2022/01/18 00:57:13;;;;;;;7.43;3.77;;;;;;;12.02;43.49;101677.34;4915769;29;20112;-75
2022/01/18 00:59:41;;;;;;;2.73;2.43;;;;;;;11.70;44.02;101645.63;4910576;29;20056;-75
2022/01/18 01:02:15;;;;;;;6.63;3.73;;;;;;;11.79;43.94;101674.81;4910305;29;20407;-76
2022/01/18 01:04:47;;;;;;;2.73;1.93;;;;;;;11.75;44.20;101668.03;4913624;29;20056;-76
2022/01/18 01:07:21;;;;;;;3.47;1.53;;;;;;;11.71;43.99;101666.88;4911460;29;20055;-75
2022/01/18 01:09:49;;;;;;;2.10;1.60;;;;;;;11.73;43.75;101668.31;4907285;29;20107;-75
2022/01/18 01:12:19;;;;;;;4.93;2.77;;;;;;;11.80;43.77;101659.72;4944893;29;20052;-75
2022/01/18 01:14:50;;;;;;;5.07;3.20;;;;;;;11.73;43.68;101656.28;4905146;29;20132;-73
2022/01/18 01:36:15;;;;;;;11.17;4.70;;;;;;;11.89;43.66;101682.50;4909744;29;20112;-75
2022/01/18 01:46:41;;;;;;;6.77;3.30;;;;;;;11.78;43.57;101645.13;4911272;29;20407;-74
2022/01/18 01:49:13;;;;;;;8.87;3.77;;;;;;;11.82;43.64;101663.09;4906387;29;20079;-75
2022/01/18 01:51:44;;;;;;;6.27;2.40;;;;;;;11.37;43.75;101599.88;4909896;29;20544;-73
2022/01/18 01:54:11;;;;;;;5.70;3.00;;;;;;;11.66;44.17;101652.81;4911621;29;20570;-70
2022/01/18 01:56:38;;;;;;;8.87;4.13;;;;;;;11.61;44.04;101656.41;4907549;29;20076;-70
2022/01/18 01:59:06;;;;;;;7.07;4.33;;;;;;;11.56;43.70;101632.03;4912299;29;20087;-70
2022/01/18 02:01:46;;;;;;;10.53;3.47;;;;;;;11.75;43.80;101662.44;4913409;29;20143;-70
2022/01/18 02:04:15;;;;;;;7.33;4.50;;;;;;;11.72;43.57;101646.19;4913432;29;20052;-70
2022/01/18 02:06:42;;;;;;;6.80;4.03;;;;;;;11.73;43.67;101653.50;4916498;29;20080;-71
2022/01/18 02:09:09;;;;;;;4.90;2.50;;;;;;;11.74;43.64;101657.97;4915188;29;20078;-72
2022/01/18 02:11:36;;;;;;;8.40;3.60;;;;;;;11.79;43.75;101658.84;4913876;29;20151;-73
2022/01/18 02:14:06;;;;;;;8.43;4.60;;;;;;;11.67;43.60;101638.59;4911222;29;20052;-71
2022/01/18 02:22:13;;;;;;;2.53;2.23;;;;;;;11.62;43.79;101658.09;4919151;29;20048;-71
2022/01/18 02:24:40;;;;;;;8.27;2.60;;;;;;;11.49;43.55;101642.56;4916437;29;20075;-70
2022/01/18 02:27:07;;;;;;;6.63;2.93;;;;;;;11.62;43.54;101658.97;4928595;29;20139;-71
2022/01/18 02:29:34;;;;;;;5.83;2.83;;;;;;;11.62;43.59;101658.97;4915149;29;20482;-68
2022/01/18 02:32:03;;;;;;;4.37;2.60;;;;;;;11.62;43.89;101646.91;4915777;29;20048;-70
2022/01/18 02:34:30;;;;;;;7.47;4.37;;;;;;;11.59;43.92;101659.47;4907745;29;20053;-70
2022/01/18 02:36:57;;;;;;;11.07;3.80;;;;;;;11.60;43.94;101652.78;4910041;29;20127;-70
2022/01/18 02:39:28;;;;;;;8.13;4.13;;;;;;;11.61;43.76;101656.41;4908820;29;20140;-69
2022/01/18 02:42:04;;;;;;;9.43;5.73;;;;;;;11.60;43.72;101647.16;4944759;29;20131;-69
2022/01/18 02:44:33;;;;;;;5.40;2.60;;;;;;;11.57;43.75;101644.91;4916116;29;20130;-71
2022/01/18 02:47:00;;;;;;;7.27;4.40;;;;;;;11.65;43.70;101656.72;4911964;29;20136;-71
2022/01/18 02:49:28;;;;;;;9.23;4.10;;;;;;;11.47;43.59;101627.97;4906672;29;20132;-70
2022/01/18 02:51:57;;;;;;;8.63;3.63;;;;;;;11.55;43.85;101647.09;4912735;29;20127;-70
2022/01/18 02:54:23;;;;;;;5.40;3.13;;;;;;;11.48;44.11;101657.63;4910773;29;20080;-71
2022/01/18 02:56:57;;;;;;;9.17;3.97;;;;;;;11.59;43.72;101659.47;4908859;29;20139;-70
2022/01/18 03:05:00;;;;;;;8.10;3.57;;;;;;;11.29;44.12;101642.28;4913864;29;20084;-71
2022/01/18 03:07:27;;;;;;;11.97;4.87;;;;;;;11.25;43.99;101635.53;4907447;29;20130;-71
2022/01/18 03:09:54;;;;;;;5.60;3.60;;;;;;;11.24;44.04;101645.00;4913338;29;20139;-71
2022/01/18 03:12:22;;;;;;;7.83;3.83;;;;;;;11.23;44.02;101632.97;4910896;29;20415;-71
2022/01/18 03:14:49;;;;;;;5.33;2.87;;;;;;;11.21;44.34;101645.53;4913482;29;20144;-71
2022/01/18 03:17:16;;;;;;;7.37;4.47;;;;;;;11.24;44.30;101650.59;4912744;29;20495;-72
2022/01/18 03:19:43;;;;;;;3.67;2.97;;;;;;;11.16;44.38;101637.91;4913372;29;20086;-72
2022/01/18 03:22:10;;;;;;;6.60;3.43;;;;;;;11.24;44.44;101647.81;4910375;29;20447;-70
2022/01/18 03:30:04;;;;;;;5.90;3.30;;;;;;;11.00;44.85;101639.63;4915147;29;20063;-71
2022/01/18 03:32:31;;;;;;;2.78;1.40;;;;;;;11.00;44.81;101628.44;4912568;29;20048;-73
2022/01/18 03:34:58;;;;;;;7.13;4.07;;;;;;;11.08;44.50;101636.41;4910075;29;20139;-72
2022/01/18 03:37:25;;;;;;;6.57;3.27;;;;;;;10.96;44.60;101618.91;4907292;29;20571;-73
2022/01/18 03:39:58;;;;;;;7.00;4.53;;;;;;;11.17;44.26;101628.41;4907771;29;20056;-76
2022/01/18 03:42:41;;;;;;;6.43;4.00;;;;;;;11.33;43.96;101632.28;4916037;29;20079;-81
2022/01/18 03:45:15;;;;;;;9.03;5.37;;;;;;;11.33;43.76;101626.69;4909367;29;20568;-78
2022/01/18 03:47:42;;;;;;;10.40;4.03;;;;;;;11.41;43.49;101628.16;4917297;29;20419;-79
2022/01/18 03:50:12;;;;;;;6.73;4.27;;;;;;;11.08;43.35;101586.09;4907313;29;20056;-79
2022/01/18 03:52:40;;;;;;;6.97;4.23;;;;;;;11.37;43.19;101628.69;4915722;29;20146;-79
2022/01/18 03:55:10;;;;;;;2.93;2.03;;;;;;;11.44;42.97;101634.09;4922681;29;20147;-74
2022/01/18 03:57:38;;;;;;;5.22;3.53;;;;;;;11.41;42.65;101639.34;4914587;29;20123;-73
2022/01/18 04:00:08;;;;;;;7.20;3.97;;;;;;;11.30;42.77;101604.81;4911155;29;20087;-73
2022/01/18 04:02:35;;;;;;;6.77;3.97;;;;;;;11.26;42.80;101620.44;4914157;29;20142;-73
2022/01/18 04:05:03;;;;;;;7.13;4.77;;;;;;;11.33;42.90;101637.88;4909386;29;20412;-75
2022/01/18 04:07:30;;;;;;;7.30;3.47;;;;;;;11.27;43.17;101630.50;4913955;29;20486;-73
2022/01/18 04:09:56;;;;;;;11.83;5.07;;;;;;;11.12;43.02;101600.41;4912110;29;20578;-77
2022/01/18 04:12:24;;;;;;;10.33;5.33;;;;;;;11.03;42.98;101588.81;4910170;29;20076;-75
2022/01/18 04:14:50;;;;;;;6.17;4.43;;;;;;;11.34;43.01;101628.38;4911544;29;20054;-75
2022/01/18 04:17:33;;;;;;;8.23;3.57;;;;;;;11.21;42.86;101601.63;4941380;29;20138;-75
2022/01/18 04:28:27;;;;;;;8.40;5.17;;;;;;;11.33;42.70;101619.13;4902002;29;20075;-71
2022/01/18 04:31:00;;;;;;;8.63;3.90;;;;;;;11.13;43.09;101600.13;4904026;29;20052;-70
2022/01/18 04:33:27;;;;;;;11.00;4.27;;;;;;;11.01;43.30;101592.97;4912091;29;20662;-68
2022/01/18 04:35:53;;;;;;;8.27;4.63;;;;;;;11.01;43.20;101604.13;4909832;29;20044;-70
2022/01/18 04:38:20;;;;;;;10.30;4.27;;;;;;;10.97;43.58;101601.00;4911408;29;20504;-71
2022/01/18 04:40:48;;;;;;;9.43;4.87;;;;;;;11.12;43.60;101622.78;4910730;29;20143;-70
2022/01/18 04:48:36;;;;;;;7.70;4.37;;;;;;;10.87;43.90;101634.41;4915840;29;20574;-71
2022/01/18 04:51:11;;;;;;;5.63;3.77;;;;;;;10.73;43.75;101619.94;4908436;29;20130;-69
2022/01/18 04:53:41;;;;;;;7.70;3.70;;;;;;;10.89;43.84;101637.81;4909625;29;20478;-68
2022/01/18 04:56:15;;;;;;;9.80;4.97;;;;;;;10.58;44.03;101602.94;4905933;29;20140;-68
2022/01/18 04:58:42;;;;;;;6.77;3.97;;;;;;;10.63;44.06;101616.97;4907402;29;20139;-69
2022/01/18 05:01:10;;;;;;;6.73;4.30;;;;;;;10.72;43.99;101639.75;4909026;29;20139;-69
2022/01/18 05:03:38;;;;;;;4.77;3.23;;;;;;;10.69;44.36;101643.91;4908686;29;20574;-70
2022/01/18 05:06:12;;;;;;;9.07;4.43;;;;;;;10.68;44.32;101642.22;4905830;29;20452;-72
2022/01/18 05:08:40;;;;;;;6.57;4.40;;;;;;;10.61;44.48;101644.34;4908983;29;20921;-71
2022/01/18 05:11:16;;;;;;;10.63;5.07;;;;;;;10.59;44.50;101649.31;4907121;29;20052;-72
2022/01/18 05:14:06;;;;;;;8.33;4.63;;;;;;;10.57;44.41;101629.19;4911579;29;20131;-72
2022/01/18 05:24:01;;;;;;;9.20;4.97;;;;;;;10.48;45.11;101634.34;4907730;29;20048;-71
2022/01/18 05:26:29;;;;;;;8.17;4.67;;;;;;;10.55;44.66;101631.38;4912820;29;20116;-72
2022/01/18 05:28:57;;;;;;;11.43;5.50;;;;;;;10.51;44.69;101614.28;4910753;29;20468;-72
2022/01/18 05:31:25;;;;;;;9.07;4.97;;;;;;;10.58;44.75;101636.47;4905033;29;20052;-73
2022/01/18 05:33:53;;;;;;;8.20;3.77;;;;;;;10.51;44.89;101633.84;4906355;29;20070;-73
2022/01/18 05:36:20;;;;;;;10.63;4.83;;;;;;;10.48;45.11;101637.16;4905860;29;20072;-75
2022/01/18 05:38:47;;;;;;;9.40;5.13;;;;;;;10.35;45.28;101623.50;4904235;29;20479;-74
2022/01/18 05:41:14;;;;;;;8.27;4.17;;;;;;;10.45;44.93;101648.81;4911875;29;20143;-72
2022/01/18 05:43:41;;;;;;;11.43;5.33;;;;;;;10.39;45.20;101649.81;4912782;29;20050;-68
2022/01/18 05:46:08;;;;;;;9.40;4.30;;;;;;;10.27;45.47;101646.28;4910437;29;20123;-69
2022/01/18 05:48:35;;;;;;;5.70;3.87;;;;;;;9.94;46.15;101625.53;4913100;29;20075;-69
2022/01/18 05:51:02;;;;;;;11.90;5.20;;;;;;;9.99;46.52;101645.19;4913738;29;20794;-69
2022/01/18 05:53:31;;;;;;;5.43;3.47;;;;;;;9.87;46.73;101647.16;4915469;29;20066;-69
2022/01/18 05:55:58;;;;;;;8.03;4.20;;;;;;;9.78;47.05;101643.94;4916551;29;20135;-69
2022/01/18 05:58:25;;;;;;;9.30;5.27;;;;;;;9.73;47.17;101641.88;4916631;29;20726;-70
2022/01/18 06:00:53;;;;;;;9.23;4.33;;;;;;;9.68;47.30;101644.59;4918269;29;20576;-69
2022/01/18 06:03:49;;;;;;;0.93;0.90;;;;;;;9.65;47.24;101650.66;4913062;29;20499;-69
2022/01/18 06:09:02;;;;;;;7.97;4.40;;;;;;;9.31;47.44;101610.63;4909541;29;20124;-70
2022/01/18 06:11:28;;;;;;;10.53;4.10;;;;;;;9.47;47.46;101621.00;4913758;29;20146;-73
2022/01/18 06:13:55;;;;;;;13.10;4.33;;;;;;;9.64;47.26;101665.69;4919237;29;20144;-73
2022/01/18 06:16:22;;;;;;;5.70;3.60;;;;;;;9.61;47.51;101666.19;4917846;29;20131;-73
2022/01/18 06:18:49;;;;;;;8.33;4.27;;;;;;;9.63;47.48;101657.56;4915393;29;20578;-73
2022/01/18 06:21:15;;;;;;;3.60;2.67;;;;;;;9.50;47.72;101664.25;4914737;29;20567;-69
2022/01/18 06:23:45;;;;;;;8.23;4.20;;;;;;;9.46;47.85;101654.69;4915178;29;20111;-69
2022/01/18 06:26:15;;;;;;;10.73;5.10;;;;;;;9.40;47.67;101638.94;4915542;29;20507;-67
2022/01/18 06:28:43;;;;;;;5.23;3.43;;;;;;;9.59;47.24;101662.78;4918448;29;20512;-67
2022/01/18 06:31:15;;;;;;;6.10;2.97;;;;;;;9.18;47.16;101597.81;4908134;29;20123;-69
2022/01/18 06:33:42;;;;;;;3.80;2.17;;;;;;;9.57;47.17;101666.91;4912099;29;20155;-72
2022/01/18 06:36:09;;;;;;;7.17;4.17;;;;;;;9.59;47.17;101673.94;4910806;29;20055;-73
2022/01/18 06:38:36;;;;;;;8.33;4.53;;;;;;;9.63;46.87;101674.28;4914340;29;20080;-73
2022/01/18 06:41:04;;;;;;;5.77;3.47;;;;;;;9.65;46.77;101675.75;4916026;29;20068;-73
2022/01/18 06:43:31;;;;;;;8.97;4.60;;;;;;;9.73;46.48;101678.13;4913120;29;20067;-64
2022/01/18 06:46:00;;;;;;;7.10;3.00;;;;;;;9.90;46.15;101675.41;4910987;29;20052;-64
2022/01/18 06:48:27;;;;;;;7.50;3.67;;;;;;;9.84;46.27;101681.13;4912953;29;20072;-64
2022/01/18 06:50:54;;;;;;;7.10;3.50;;;;;;;9.70;46.20;101664.69;4908481;29;20080;-71
2022/01/18 06:53:21;;;;;;;8.67;3.27;;;;;;;9.70;46.40;101692.56;4938865;29;20131;-66
2022/01/18 06:55:53;;;;;;;7.93;3.40;;;;;;;9.65;46.43;101689.69;4924780;29;20143;-63
2022/01/18 06:58:22;;;;;;;8.50;4.37;;;;;;;9.37;46.37;101645.03;4910398;29;20048;-61
2022/01/18 07:00:49;;;;;;;8.73;4.10;;;;;;;9.53;46.18;101655.41;4937547;29;20076;-62
2022/01/18 07:03:17;;;;;;;10.83;4.00;;;;;;;9.57;45.95;101665.00;4910507;29;20060;-62
2022/01/18 07:05:45;;;;;;;8.10;5.07;;;;;;;9.80;46.14;101691.09;4904755;29;20134;-66
2022/01/18 07:08:15;;;;;;;11.02;3.75;;;;;;;9.67;45.99;101684.69;4905818;29;20059;-64
2022/01/18 07:10:41;;;;;;;7.43;3.00;;;;;;;9.39;46.00;101640.91;4904141;29;20119;-63
2022/01/18 07:13:11;;;;;;;7.33;4.20;;;;;;;9.63;46.05;101675.13;4909319;29;20092;-63
2022/01/18 07:15:38;;;;;;;8.03;2.97;;;;;;;9.60;46.07;101684.00;4914163;29;20044;-63
2022/01/18 07:18:06;;;;;;;6.57;2.57;;;;;;;9.61;46.09;101688.50;4911265;29;20044;-63
2022/01/18 07:20:34;;;;;;;5.60;3.57;;;;;;;9.16;46.03;101602.78;4916147;29;20115;-63
2022/01/18 07:23:01;;;;;;;5.17;2.93;;;;;;;9.52;46.11;101681.59;4907731;29;20048;-64
2022/01/18 07:25:29;;;;;;;5.63;2.93;;;;;;;9.50;46.04;101675.41;4911637;29;20423;-61
2022/01/18 07:27:55;;;;;;;8.37;3.80;;;;;;;9.56;46.06;101685.59;4913231;29;20126;-62
2022/01/18 07:30:22;;;;;;;6.43;3.53;;;;;;;9.53;46.14;101685.22;4910436;29;20075;-61
2022/01/18 07:32:49;;;;;;;5.60;2.50;;;;;;;9.48;46.36;101685.97;4924785;29;20052;-61
2022/01/18 07:35:16;;;;;;;6.13;3.50;;;;;;;9.34;46.66;101687.34;4924385;29;20086;-62
2022/01/18 07:37:43;;;;;;;4.77;2.77;;;;;;;9.21;46.86;101691.22;4918312;29;20063;-62
2022/01/18 07:40:10;;;;;;;4.60;2.40;;;;;;;8.88;47.34;101661.19;4914055;29;20083;-62
2022/01/18 07:42:38;;;;;;;7.03;3.27;;;;;;;9.00;47.54;101687.13;4919725;29;20083;-63
2022/01/18 07:45:06;;;;;;;5.20;4.00;;;;;;;8.85;47.41;101656.09;4920382;29;20075;-62
2022/01/18 07:47:33;;;;;;;3.77;2.27;;;;;;;8.99;47.49;101696.56;4917303;29;20072;-63
2022/01/18 07:50:00;;;;;;;3.60;1.97;;;;;;;8.86;47.58;101694.88;4917304;29;20087;-62
2022/01/18 07:52:26;;;;;;;5.77;1.87;;;;;;;8.84;47.58;101704.56;4906432;29;20080;-64
2022/01/18 07:54:53;;;;;;;4.47;2.47;;;;;;;8.80;47.68;101695.00;4904428;29;20507;-64
2022/01/18 07:57:21;;;;;;;6.13;3.17;;;;;;;8.69;47.72;101689.16;4909149;29;20540;-64
2022/01/18 07:59:48;;;;;;;2.13;1.40;;;;;;;8.70;47.74;101692.78;4908398;29;20095;-63
2022/01/18 08:02:15;;;;;;;3.20;2.20;;;;;;;8.63;47.63;101692.06;4914047;29;20158;-63
2022/01/18 08:04:42;;;;;;;4.20;2.00;;;;;;;8.69;47.39;101691.13;4914005;29;20067;-63
2022/01/18 08:07:10;;;;;;;1.30;1.20;;;;;;;8.76;46.94;101691.84;4909483;29;20051;-63
2022/01/18 08:09:37;;;;;;;6.50;2.73;;;;;;;8.83;46.78;101683.38;4910364;29;20464;-64
2022/01/18 08:12:06;;;;;;;3.40;1.50;;;;;;;8.85;46.42;101683.97;4909956;29;20111;-64
2022/01/18 08:14:34;;;;;;;3.33;2.10;;;;;;;8.80;46.37;101681.06;4911068;29;20080;-63
2022/01/18 08:17:05;;;;;;;8.40;2.67;;;;;;;9.05;45.89;101698.38;4913907;29;20059;-63
2022/01/18 08:19:34;;;;;;;2.90;2.00;;;;;;;9.31;45.31;101693.41;4911581;29;20147;-63
2022/01/18 08:22:06;;;;;;;2.80;1.90;;;;;;;9.58;44.68;101688.16;4905985;29;20060;-63
2022/01/18 08:24:33;;;;;;;2.73;1.07;;;;;;;9.71;44.18;101688.72;4906576;29;20190;-62
2022/01/18 08:27:00;;;;;;;2.27;1.83;;;;;;;9.60;44.06;101683.16;4907136;29;20115;-63
2022/01/18 08:29:27;;;;;;;4.47;2.47;;;;;;;9.60;43.89;101666.41;4910361;29;20150;-61
2022/01/18 08:32:16;;;;;;;2.90;1.67;;;;;;;9.72;43.81;101701.56;4907944;29;20408;-63
2022/01/18 08:34:43;;;;;;;15.50;2.13;;;;;;;9.81;43.81;101692.78;4908158;29;20138;-63
2022/01/18 08:37:10;;;;;;;4.73;1.83;;;;;;;10.12;43.45;101695.13;4916396;29;20075;-63
2022/01/18 08:39:37;;;;;;;3.47;2.50;;;;;;;10.54;42.65;101683.63;4912826;29;21639;-63
2022/01/18 08:42:04;;;;;;;3.27;1.50;;;;;;;10.88;42.32;101700.38;4912885;29;20483;-63
2022/01/18 08:44:31;;;;;;;5.60;3.00;;;;;;;11.10;41.98;101698.50;4911127;29;20056;-64
2022/01/18 08:46:58;;;;;;;7.70;4.33;;;;;;;11.29;41.02;101651.53;4914302;29;20126;-64
2022/01/18 08:49:25;;;;;;;5.37;3.40;;;;;;;11.97;40.61;101670.88;4912543;29;20598;-65
2022/01/18 08:51:52;;;;;;;7.03;4.10;;;;;;;12.47;39.71;101720.97;4911210;29;20083;-63
2022/01/18 08:54:19;;;;;;;6.10;2.80;;;;;;;12.60;39.75;101719.69;4904687;29;20159;-63
2022/01/18 08:56:46;;;;;;;7.70;3.63;;;;;;;12.49;39.29;101718.75;4906140;29;20598;-63
2022/01/18 08:59:21;;;;;;;7.50;3.57;;;;;;;12.62;39.09;101723.09;4909817;29;20062;-64
2022/01/18 09:01:49;;;;;;;6.93;4.20;;;;;;;13.03;38.71;101721.47;4915153;29;20075;-63
2022/01/18 09:04:20;;;;;;;6.90;4.57;;;;;;;13.69;38.29;101709.00;4904158;29;20507;-66
2022/01/18 09:06:50;;;;;;;7.57;4.28;;;;;;;14.46;37.80;101712.88;4911851;29;20048;-65
2022/01/18 09:09:18;;;;;;;6.33;3.77;;;;;;;15.11;37.30;101713.22;4911247;29;20048;-64
2022/01/18 09:11:46;;;;;;;8.80;4.30;;;;;;;15.44;36.40;101680.81;4911683;29;20071;-65
2022/01/18 09:14:14;;;;;;;7.23;4.17;;;;;;;16.19;36.06;101694.03;4914086;29;20075;-64
2022/01/18 09:16:41;;;;;;;8.47;4.50;;;;;;;16.89;35.19;101719.22;4913815;29;20079;-64
2022/01/18 09:19:08;;;;;;;6.60;4.90;;;;;;;17.33;35.08;101704.13;4910952;29;20096;-64
2022/01/18 09:21:35;;;;;;;6.18;4.32;;;;;;;17.90;34.48;101722.19;4913036;29;20060;-64
2022/01/18 09:24:03;;;;;;;10.13;5.63;;;;;;;18.50;34.04;101719.66;4913514;29;20087;-63
2022/01/18 09:26:30;;;;;;;8.30;5.68;;;;;;;18.90;33.27;101723.00;4909108;29;20138;-64
2022/01/18 09:28:57;;;;;;;12.77;5.68;;;;;;;18.99;32.46;101723.16;4912289;29;20147;-64
2022/01/18 09:31:25;;;;;;;8.25;5.68;;;;;;;18.94;31.49;101724.09;4912561;29;20072;-65
2022/01/18 09:33:52;;;;;;;6.80;4.82;;;;;;;18.75;31.71;101726.94;4910695;29;20159;-62
2022/01/18 09:36:19;;;;;;;6.93;3.80;;;;;;;18.47;31.38;101720.28;4914187;29;20083;-64
2022/01/18 09:38:46;;;;;;;9.18;3.85;;;;;;;18.25;30.13;101723.69;4913634;29;20060;-65
2022/01/18 09:41:17;;;;;;;5.15;3.42;;;;;;;18.00;30.07;101693.78;4908299;29;20504;-65
2022/01/18 09:43:44;;;;;;;4.03;2.55;;;;;;;18.35;30.32;101734.00;4913759;29;20051;-64
2022/01/18 09:46:11;;;;;;;2.60;2.15;;;;;;;17.94;29.80;101717.59;4911504;29;20131;-64
2022/01/18 09:48:38;;;;;;;4.53;2.78;;;;;;;17.87;29.81;101729.25;4909619;29;20048;-63
2022/01/18 09:51:04;;;;;;;8.48;4.22;;;;;;;18.36;30.04;101735.69;4910270;29;20466;-65
2022/01/18 09:53:31;;;;;;;4.47;3.03;;;;;;;18.21;29.16;101739.56;4911607;29;20156;-64
2022/01/18 09:55:59;;;;;;;2.70;2.35;;;;;;;18.05;29.04;101730.47;4908777;29;20059;-64
2022/01/18 09:58:26;;;;;;;9.20;4.57;;;;;;;17.89;28.74;101729.81;4912251;29;20115;-65
2022/01/18 10:00:55;;;;;;;8.70;4.15;;;;;;;17.50;28.58;101707.34;4914386;29;20135;-64
2022/01/18 10:03:24;;;;;;;5.38;3.40;;;;;;;17.56;28.34;101744.84;4902986;29;20131;-64
2022/01/18 10:05:52;;;;;;;6.75;2.53;;;;;;;17.15;28.85;101743.28;4902214;29;20087;-65
2022/01/18 10:08:19;;;;;;;5.57;2.90;;;;;;;16.90;29.12;101749.16;4913534;29;20221;-65
2022/01/18 10:10:49;;;;;;;7.28;3.00;;;;;;;16.75;29.27;101725.56;4910334;29;20055;-64
2022/01/18 10:13:21;;;;;;;;;;;;;;;16.59;29.86;101732.41;4913049;29;20131;-64
2022/01/18 10:16:08;;;;;;;4.35;2.90;;;;;;;16.85;29.60;101743.53;4912792;29;20207;-64
2022/01/18 10:18:42;;;;;;;2.28;2.08;;;;;;;16.85;29.22;101741.53;4908742;29;20048;-63
2022/01/18 10:21:11;;;;;;;5.07;2.53;;;;;;;16.35;29.20;101702.09;4914443;29;20080;-65
2022/01/18 10:23:38;;;;;;;5.22;2.33;;;;;;;16.57;29.30;101755.25;4907218;29;20083;-64
2022/01/18 10:26:15;;;;;;;2.92;2.33;;;;;;;16.69;29.39;101748.44;4912886;29;20062;-64
2022/01/18 10:28:42;;;;;;;2.47;2.08;;;;;;;16.55;29.10;101748.25;4917309;29;20115;-64
2022/01/18 10:32:20;;;;;;;7.20;3.83;;;;;;;16.59;29.25;101740.88;4915780;29;20094;-64
2022/01/18 10:37:21;;;;;;;8.68;4.45;;;;;;;17.19;28.75;101747.19;4915184;29;20143;-64
2022/01/18 10:39:50;;;;;;;4.32;3.17;;;;;;;17.41;28.80;101765.63;4908505;29;20056;-63
2022/01/18 10:42:39;;;;;;;8.05;3.58;;;;;;;17.59;28.28;101739.44;4914022;29;20135;-64
2022/01/18 10:45:30;;;;;;;5.53;4.13;;;;;;;17.76;28.06;101750.31;4915952;29;20494;-63
2022/01/18 10:48:04;;;;;;;8.15;3.25;;;;;;;18.12;28.25;101733.78;4910995;29;20067;-64
2022/01/18 10:50:38;;;;;;;7.47;4.53;;;;;;;18.32;28.03;101748.75;4915169;29;20106;-64
2022/01/18 10:53:24;;;;;;;7.43;4.25;;;;;;;18.30;27.48;101751.06;4911755;29;20487;-64
2022/01/18 10:56:14;;;;;;;9.07;5.10;;;;;;;18.91;27.47;101748.19;4908606;29;20130;-63
2022/01/18 10:58:52;;;;;;;6.70;4.05;;;;;;;19.58;27.26;101742.16;4916044;29;20051;-64
2022/01/18 11:01:20;;;;;;;10.50;4.60;;;;;;;20.11;26.86;101736.03;4909404;29;20424;-63
2022/01/18 11:04:11;;;;;;;6.95;4.50;;;;;;;20.52;26.76;101740.81;4912408;29;20052;-64
2022/01/18 11:06:42;;;;;;;5.88;4.47;;;;;;;20.80;25.50;101747.25;4902547;29;20056;-62
2022/01/18 11:09:14;;;;;;;6.22;4.53;;;;;;;20.94;25.60;101733.00;4902628;29;20064;-63
2022/01/18 11:11:47;;;;;;;6.63;5.03;;;;;;;21.24;25.79;101699.28;4912168;29;20200;-64
2022/01/18 11:14:20;;;;;;;8.68;5.78;;;;;;;22.30;25.44;101734.41;4911840;29;20103;-63
2022/01/18 11:16:49;;;;;;;11.13;6.32;;;;;;;23.06;25.35;101733.94;4914882;29;20101;-63
2022/01/18 11:21:50;;;;;;;10.35;6.07;;;;;;;24.23;24.23;101719.47;4914496;29;20083;-65
2022/01/18 11:24:19;;;;;;;8.73;5.97;;;;;;;24.71;24.31;101721.81;4912278;29;20156;-64
2022/01/18 11:26:47;;;;;;;9.13;6.13;;;;;;;24.97;23.75;101726.47;4909748;29;20135;-63
2022/01/18 11:29:19;;;;;;;9.95;4.45;;;;;;;24.82;23.00;101723.09;4914382;29;20435;-63
2022/01/18 11:31:51;;;;;;;8.00;5.38;;;;;;;24.44;22.91;101722.38;4915364;29;20167;-64
2022/01/18 11:34:54;;;;;;;9.85;5.95;;;;;;;24.44;22.73;101716.66;4913941;29;20418;-64
2022/01/18 11:37:46;;;;;;;8.50;5.47;;;;;;;24.27;22.62;101711.88;4914488;29;20123;-64
2022/01/18 11:40:17;;;;;;;7.65;5.03;;;;;;;24.80;22.01;101708.31;4911715;29;20087;-65
2022/01/18 11:42:50;;;;;;;12.25;6.15;;;;;;;25.42;22.04;101699.97;4908215;29;20048;-64
2022/01/18 11:45:29;;;;;;;9.02;5.70;;;;;;;26.16;22.08;101707.44;4912467;29;20082;-63
2022/01/18 11:48:11;;;;;;;10.35;6.43;;;;;;;26.33;21.22;101699.81;4911125;29;20171;-64
2022/01/18 11:50:42;;;;;;;9.25;5.68;;;;;;;26.67;21.10;101687.81;4908615;29;20052;-64
2022/01/18 11:53:24;;;;;;;9.32;6.05;;;;;;;26.65;20.28;101687.31;4941973;29;20566;-63
2022/01/18 11:55:55;;;;;;;7.60;5.22;;;;;;;26.84;20.17;101686.66;4910007;29;20491;-64
2022/01/18 11:58:24;;;;;;;10.57;6.35;;;;;;;27.30;19.42;101698.66;4905971;29;20139;-64
2022/01/18 12:00:58;;;;;;;10.65;6.40;;;;;;;27.27;19.59;101693.63;4916126;29;20127;-63
2022/01/18 12:03:28;;;;;;;8.75;5.80;;;;;;;27.11;18.89;101689.88;4909280;29;20052;-63
2022/01/18 12:05:58;;;;;;;10.82;5.60;;;;;;;26.36;19.28;101671.28;4912508;29;20135;-67
2022/01/18 12:08:38;;;;;;;9.95;6.68;;;;;;;26.24;19.13;101666.38;4913770;29;20084;-67
2022/01/18 12:11:33;;;;;;;11.63;6.45;;;;;;;26.52;19.04;101670.53;4909774;29;20428;-65
2022/01/18 12:14:01;;;;;;;9.23;6.25;;;;;;;26.42;18.71;101651.78;4914482;29;20167;-65
2022/01/18 12:16:29;;;;;;;10.65;6.00;;;;;;;26.80;18.96;101661.94;4915581;29;20163;-63
2022/01/18 12:19:01;;;;;;;10.65;5.45;;;;;;;26.61;18.46;101611.91;4911397;29;20052;-65
2022/01/18 12:21:31;;;;;;;6.88;5.13;;;;;;;26.36;18.23;101659.81;4909964;29;20079;-64
2022/01/18 12:24:12;;;;;;;;;;;;;;;26.18;18.41;101664.13;4912249;29;20480;-64
2022/01/18 12:26:46;;;;;;;11.50;6.63;;;;;;;25.65;18.39;101663.19;4911808;29;19931;-62
2022/01/18 12:34:45;;;;;;;8.25;6.40;;;;;;;26.42;17.49;101664.06;4909632;29;20091;-64
2022/01/18 12:37:13;;;;;;;11.32;6.60;;;;;;;25.85;17.70;101664.31;4914998;29;20867;-62
2022/01/18 12:39:49;;;;;;;8.52;6.57;;;;;;;26.17;17.97;101660.44;4909846;29;20523;-62
2022/01/18 12:44:20;;;;;;;8.10;6.60;;;;;;;26.91;17.61;101643.88;4910302;29;20135;-63
2022/01/18 12:45:16;;;;;;;10.02;6.05;;;;;;;27.47;16.70;101657.31;4907949;29;20060;-63
2022/01/18 12:47:54;;;;;;;8.45;6.55;;;;;;;26.55;16.83;101639.13;4911765;29;20610;-64
2022/01/18 12:50:26;;;;;;;9.88;6.85;;;;;;;26.46;16.72;101647.00;4908715;29;20135;-63
2022/01/18 12:53:04;;;;;;;9.02;6.45;;;;;;;26.39;17.27;101655.38;4910670;29;20495;-63
2022/01/18 12:55:44;;;;;;;5.88;4.03;;;;;;;26.54;17.03;101634.59;4911365;29;20155;-64
2022/01/18 12:58:13;;;;;;;10.05;6.00;;;;;;;26.35;17.12;101657.28;4909307;29;20079;-64
2022/01/18 13:00:49;;;;;;;18.55;11.63;;;;;;;26.92;17.24;101619.75;4911656;29;20103;-63
2022/01/18 13:03:34;;;;;;;12.25;7.63;;;;;;;27.97;16.80;101623.31;4912473;29;20082;-63
2022/01/18 13:06:10;;;;;;;16.48;8.65;;;;;;;28.60;16.66;101633.78;4912145;29;20063;-62